Nearby METAR Reports

 

CYUL - Montreal/Dorval, Quebec, Canada
Distance from station: ENE 6km
Updated: 06/06/2020 11:00 EDT
Few Clouds
Few Clouds
 Wind from SSW
Wind: SSW 17 km/h
Temperature: 24°C
Dew Point: 15°C
Humidity: 57%
Barometer: 1006.4 hPa
Clouds: Few Clouds
Visibility: 48 km
Cloud details: Few Clouds 1280 m
Few Clouds 7620 m
2020/06/06 15:00 CYUL 061500Z 21009KT 190V250 30SM FEW042 FEW250 24/15 A2972 RMK CU1CI1 CI TR SLP065 DENSITY ALT 1400FT
CWVQ - Ste Anne De Bell, Quebec, Canada
Distance from station: WSW 10km
Updated: 06/06/2020 11:00 EDT

 Wind from W
Wind: W 13 km/h
Temperature: 23°C
Dew Point: 14°C
Humidity: 57%
2020/06/06 15:00 CWVQ 061500Z AUTO 27007KT 23/14 RMK AO1 SLP068 T02280137 51002
 
CWTA - Mc Tavish (aut), Quebec, Canada
Distance from station: ENE 18km
Updated: 06/06/2020 11:00 EDT

 
Temperature: 23°C
Dew Point: 12°C
Humidity: 50%
2020/06/06 15:00 CWTA 061500Z AUTO 23/12 RMK AO1 SLP063 T02330122 58001
CYMX - Montreal/Mirabel, Quebec, Canada
Distance from station: NW 29km
Updated: 06/06/2020 11:00 EDT
Partly cloudy
Partly cloudy
 Wind from WSW
Wind: WSW 13 km/h
Temperature: 23°C
Dew Point: 13°C
Humidity: 53%
Barometer: 1006.4 hPa
Clouds: Partly cloudy
Visibility: 72 km
Cloud details: Partly cloudy 1219 m
Partly cloudy 3048 m
2020/06/06 15:00 CYMX 061500Z 24007KT 200V300 45SM SCT040 SCT100 23/13 A2972 RMK CU4AC1 AC TR SLP066 DENSITY ALT 1500FT
 
CYHU - Saint Hubert Arp, Quebec, Canada
Distance from station: ENE 31km
Updated: 06/06/2020 11:00 EDT
Clear
Clear
 Wind from NW
Wind: NW 7 km/h
Temperature: 23°C
Dew Point: 13°C
Humidity: 53%
Barometer: 1006.1 hPa
Clouds: Clear
Visibility: 14 km
2020/06/06 15:00 CYHU 061500Z AUTO 31004KT 270V340 9SM CLR 23/13 A2971 RMK SLP062 DENSITY ALT 1200FT
CWIT - St Clothilde (a, Quebec, Canada
Distance from station: SSE 33km
Updated: 06/06/2020 11:00 EDT

 Wind from W
Wind: W 9 km/h
Temperature: 23°C
Dew Point: 15°C
Humidity: 61%
2020/06/06 15:00 CWIT 061500Z AUTO 26005KT 23/15 RMK AO1 SLP065 T02270152 56001
 
CWIZ - L'acadie, Quebec, Canada
Distance from station: ESE 41km
Updated: 06/06/2020 11:00 EDT

 Wind from W
Wind: W 7 km/h
Temperature: 23°C
Dew Point: 16°C
Humidity: 65%
2020/06/06 15:00 CWIZ 061500Z AUTO 28004KT 23/16 RMK AO1 T02270160
CWHM - Varennes, Quebec, Canada
Distance from station: NE 45km
Updated: 10/25/2016 10:00 EDT
NOT Current

 Wind from W
Wind: W 19 km/h, Gust: 28 km/h
Temperature: 4°C
Wind Chill: 0°C
Dew Point: -2°C
Humidity: 65%
2016/10/25 14:00 CWHM 251400Z AUTO 28010G15KT 04/M02 RMK AO1 PK WND 28018/1302 T00391017
 
CWEW - L'assomption, Quebec, Canada
Distance from station: NE 50km
Updated: 06/06/2020 11:00 EDT

 Wind from WSW
Wind: WSW 6 km/h
Temperature: 23°C
Dew Point: 14°C
Humidity: 57%
2020/06/06 15:00 CWEW 061500Z AUTO 25003KT 23/14 RMK AO1 SLP066 T02290140 50000
CWBZ - St Anicet, Quebec, Canada
Distance from station: SW 52km
Updated: 06/06/2020 11:00 EDT

 Wind from W
Wind: W 15 km/h
Temperature: 23°C
Dew Point: 13°C
Humidity: 53%
2020/06/06 15:00 CWBZ 061500Z AUTO 26008KT 23/13 RMK AO1 SLP066 T02330134 50003
 
KFSO - Highgate, Vermont, USA
Distance from station: SE 79km
Updated: 06/06/2020 11:56 EDT
Clear
Clear
 Wind from calm
Wind: Calm
Temperature: 25°C
Dew Point: 18°C
Humidity: 65%
Barometer: 1006.8 hPa
Clouds: Clear
Visibility: 16 km
2020/06/06 15:56 KFSO 061556Z AUTO 00000KT 10SM CLR 25/18 A2973 RMK AO2 T02470181
CMGB - Granby, Quebec, Canada
Distance from station: E 81km
Updated: 06/06/2020 11:45 EDT

 Wind from W
Wind: W 7 km/h
Temperature: 23°C
2020/06/06 15:45 CMGB 061545Z AUTO 27004KT 23/ RMK AO1 SLP060 T0228 51001
 
CWJT - St Jovite (autob, Quebec, Canada
Distance from station: NW 88km
Updated: 06/06/2020 11:00 EDT

 Wind from NNW
Wind: NNW 4 km/h
Temperature: 20°C
Dew Point: 14°C
Humidity: 69%
2020/06/06 15:00 CWJT 061500Z AUTO 34002KT 20/14 RMK AO1 SLP072 T02020135 51006
CWFQ - Frelighsburg, Quebec, Canada
Distance from station: ESE 90km
Updated: 06/06/2020 11:00 EDT

 Wind from S
Wind: S 7 km/h
Temperature: 20°C
Dew Point: 17°C
Humidity: 83%
2020/06/06 15:00 CWFQ 061500Z AUTO 18004KT 20/17 RMK AO1 3002 SLP066 T02020168 50005
 
KPBG - Plattsburgh Afb, New York, USA
Distance from station: SSE 93km
Updated: 06/06/2020 11:53 EDT
Few Clouds
Few Clouds
 Wind from ENE
Wind: ENE 9 km/h
Temperature: 23°C
Dew Point: 18°C
Humidity: 74%
Barometer: 1006.4 hPa
Clouds: Few Clouds
Visibility: 16 km
Cloud details: Few Clouds 1676 m
2020/06/06 15:53 KPBG 061553Z AUTO 06005KT 10SM FEW055 23/18 A2972 RMK AO2 SLP064 T02330183
KMSS - Massena, New York, USA
Distance from station: SW 100km
Updated: 06/06/2020 11:53 EDT
Partly cloudy
Partly cloudy
 Wind from NW
Wind: NW 13 km/h
Temperature: 24°C
Dew Point: 12°C
Humidity: 47%
Barometer: 1008.5 hPa
Clouds: Partly cloudy
Visibility: 16 km
Cloud details: Partly cloudy 2743 m
2020/06/06 15:53 KMSS 061553Z AUTO 31007KT 10SM SCT090 24/12 A2978 RMK AO2 SLP082 T02390117
 
CWBS - Lac St Pierre (a, Quebec, Canada
Distance from station: NE 106km
Updated: 11/05/2019 18:00 EST
NOT Current

 Wind from SE
Wind: SE 9 km/h
Temperature: 6°C
Wind Chill: 4°C
Dew Point: 0°C
Humidity: 66%
2019/11/05 23:00 CWBS 052300Z AUTO 14005KT 06/M00 RMK AO1 T00551002
KBTV - Burlington, Vermont, USA
Distance from station: SSE 121km
Updated: 06/06/2020 11:54 EDT
Partly cloudy
Partly cloudy
 Wind from NW
Wind: NW 22 km/h, Gust: 31 km/h
Temperature: 26°C
Dew Point: 16°C
Humidity: 54%
Barometer: 1006.4 hPa
Clouds: Partly cloudy
Visibility: 16 km
Cloud details: Partly cloudy 914 m
2020/06/06 15:54 KBTV 061554Z 31012G17KT 10SM SCT030 26/16 A2972 RMK AO2 LTG DSNT SE SLP063 T02610161
 
KSLK - Saranac Lake, New York, USA
Distance from station: SSW 121km
Updated: 06/06/2020 11:51 EDT
Clear
Clear
 Wind from NW
Wind: NW 13 km/h
Temperature: 22°C
Dew Point: 9°C
Humidity: 44%
Barometer: 1008.8 hPa
Clouds: Clear
Visibility: 16 km
2020/06/06 15:51 KSLK 061551Z AUTO 31007KT 10SM CLR 22/09 A2979 RMK AO2 SLP082 T02170089
CWNQ - Nicolet (autob), Quebec, Canada
Distance from station: NE 123km
Updated: 06/06/2020 11:00 EDT

 Wind from WSW
Wind: WSW 7 km/h
Temperature: 19°C
Dew Point: 17°C
Humidity: 88%
2020/06/06 15:00 CWNQ 061500Z AUTO 25004KT 19/17 RMK AO1 SLP059 T01940170 55002
 
KMWN - Mount Washington, New Hampshire, USA
Distance from station: SE 237km
Updated: 06/06/2020 11:53 EDT
Rain showers, Fog, Overcast
Rain showers, Fog, Overcast
 Wind from WNW
Wind: WNW 91 km/h, Gust: 122 km/h
Temperature: 10°C
Wind Chill: 4°C
Dew Point: 10°C
Humidity: 100%
Summary: Rain showers, Fog
Clouds: Overcast
Visibility: 0 km
Cloud details: Overcast 0 m
2020/06/06 15:53 KMWN 061553Z 29049G66KT 0SM SHRA FG VV000 10/10 RMK SHRAB35
CYVR - Vancouver Intl A, British Columbia, Canada
Distance from station: NW 3676km
Updated: 06/06/2020 11:28 EDT
Overcast
Overcast
 Wind from E
Wind: E 20 km/h
Temperature: 11°C
Dew Point: 9°C
Humidity: 88%
Barometer: 1008.1 hPa
Clouds: Overcast
Visibility: 24 km
Cloud details: Few Clouds 549 m
Few Clouds 792 m
Partly cloudy 914 m
Mostly cloudy 1280 m
Overcast 2073 m
2020/06/06 15:28 CYVR 061528Z 08011KT 15SM FEW018 FEW026TCU SCT030 BKN042 OVC068 11/09 A2977 RMK SF1TCU1SC3SC3AC1 TCU TR SLP084